createdAt,value
2024-04-18T00:01:56.064Z,97101.00
2024-04-18T00:04:23.745Z,97114.00
2024-04-18T00:07:00.905Z,97111.00
2024-04-18T00:09:28.516Z,97102.00
2024-04-18T00:11:56.066Z,97099.00
2024-04-18T00:14:43.993Z,97110.00
2024-04-18T00:17:17.866Z,97119.00
2024-04-18T00:19:45.692Z,97105.00
2024-04-18T00:22:32.493Z,97106.00
2024-04-18T00:25:07.470Z,97104.00
2024-04-18T00:27:55.511Z,97109.00
2024-04-18T00:30:42.794Z,97114.00
2024-04-18T00:33:10.793Z,97099.00
2024-04-18T00:35:39.999Z,97105.00
2024-04-18T00:38:16.508Z,97105.00
2024-04-18T00:40:45.152Z,97117.00
2024-04-18T00:43:22.664Z,97103.00
2024-04-18T00:45:54.376Z,97102.00
2024-04-18T00:48:27.700Z,97115.00
2024-04-18T00:51:03.543Z,97105.00
2024-04-18T00:53:32.665Z,97099.00
2024-04-18T00:56:20.210Z,97103.00
2024-04-18T00:58:50.057Z,97107.00
2024-04-18T01:01:21.526Z,97118.00
2024-04-18T01:03:57.202Z,97111.00
2024-04-18T01:06:40.580Z,97121.00
2024-04-18T01:09:18.159Z,97120.00
2024-04-18T01:12:04.965Z,97113.00
2024-04-18T01:14:32.529Z,97127.00
2024-04-18T01:17:06.498Z,97126.00
2024-04-18T01:19:34.324Z,97108.00
2024-04-18T01:22:05.482Z,97123.00
2024-04-18T01:24:34.333Z,97119.00
2024-04-18T01:27:02.117Z,97131.00
2024-04-18T01:29:45.492Z,97126.00
2024-04-18T01:32:38.822Z,97133.00
2024-04-18T01:35:08.229Z,97136.00
2024-04-18T01:37:48.604Z,97128.00
2024-04-18T01:40:16.711Z,97130.00
2024-04-18T01:42:44.576Z,97134.00
2024-04-18T01:45:27.763Z,97141.00
2024-04-18T01:48:14.220Z,97123.00
2024-04-18T01:51:04.269Z,97137.00
2024-04-18T01:53:34.779Z,97138.00
2024-04-18T01:56:02.266Z,97129.00
2024-04-18T01:58:44.682Z,97143.00
2024-04-18T02:01:12.324Z,97146.00
2024-04-18T02:03:40.684Z,97145.00
2024-04-18T02:06:14.527Z,97147.00
2024-04-18T02:08:48.512Z,97149.00
2024-04-18T02:11:42.558Z,97154.00
2024-04-18T02:14:17.104Z,97153.00
2024-04-18T02:16:45.006Z,97147.00
2024-04-18T02:19:24.817Z,97150.00
2024-04-18T02:22:10.693Z,97162.00
2024-04-18T02:25:09.921Z,97159.00
2024-04-18T02:27:44.769Z,97150.00
2024-04-18T02:30:26.657Z,97155.00
2024-04-18T02:33:15.933Z,97152.00
2024-04-18T02:35:48.439Z,97161.00
2024-04-18T02:38:35.649Z,97165.00
2024-04-18T02:41:07.768Z,97149.00
2024-04-18T02:43:55.214Z,97157.00
2024-04-18T02:46:24.664Z,97173.00
2024-04-18T02:49:11.207Z,97163.00
2024-04-18T02:51:58.011Z,97169.00
2024-04-18T02:54:44.759Z,97158.00
2024-04-18T02:57:12.487Z,97182.00
2024-04-18T02:59:40.024Z,97177.00
2024-04-18T03:02:26.172Z,97172.00
2024-04-18T03:05:13.990Z,97183.00
2024-04-18T03:07:41.534Z,97168.00
2024-04-18T03:10:09.086Z,97179.00
2024-04-18T03:12:56.852Z,97191.00
2024-04-18T03:15:47.385Z,97183.00
2024-04-18T03:18:15.692Z,97182.00
2024-04-18T03:20:52.793Z,97183.00
2024-04-18T03:23:20.352Z,97192.00
2024-04-18T03:26:03.000Z,97186.00
2024-04-18T03:28:30.519Z,97204.00
2024-04-18T03:30:58.079Z,97191.00
2024-04-18T03:33:25.593Z,97169.00
2024-04-18T03:35:53.125Z,97196.00
2024-04-18T03:38:20.899Z,97209.00
2024-04-18T03:40:58.940Z,97208.00
2024-04-18T03:43:26.472Z,97203.00
2024-04-18T03:46:01.524Z,97212.00
2024-04-18T03:48:30.600Z,97209.00
2024-04-18T03:50:58.402Z,97211.00
2024-04-18T03:53:45.921Z,97208.00
2024-04-18T03:56:13.404Z,97218.00
2024-04-18T03:58:41.208Z,97220.00
2024-04-18T04:01:08.866Z,97207.00
2024-04-18T04:03:36.535Z,97222.00
2024-04-18T04:06:04.166Z,97219.00
2024-04-18T04:08:31.665Z,97239.00
2024-04-18T04:11:11.524Z,97224.00
2024-04-18T04:13:39.121Z,97217.00
2024-04-18T04:16:22.408Z,97220.00
2024-04-18T04:19:10.074Z,97238.00
2024-04-18T04:21:50.235Z,97237.00
2024-04-18T04:24:17.989Z,97247.00
2024-04-18T04:26:52.814Z,97258.00
2024-04-18T04:29:21.305Z,97257.00
2024-04-18T04:31:48.935Z,97268.00
2024-04-18T04:34:16.482Z,97265.00
2024-04-18T04:36:44.055Z,97275.00
2024-04-18T04:39:11.624Z,97268.00
2024-04-18T04:41:42.218Z,97289.00
2024-04-18T04:44:09.791Z,97283.00
2024-04-18T04:46:51.129Z,97271.00
2024-04-18T04:49:20.630Z,97290.00
2024-04-18T04:52:05.510Z,97277.00
2024-04-18T04:54:43.927Z,97276.00
2024-04-18T04:57:12.734Z,97291.00
2024-04-18T04:59:40.524Z,97297.00
2024-04-18T05:02:08.499Z,97293.00
2024-04-18T05:04:52.079Z,97307.00
2024-04-18T05:07:33.096Z,97297.00
2024-04-18T05:10:21.046Z,97312.00
2024-04-18T05:12:51.570Z,97317.00
2024-04-18T05:15:37.765Z,97313.00
2024-04-18T05:18:07.265Z,97323.00
2024-04-18T05:20:35.061Z,97327.00
2024-04-18T05:23:02.808Z,97326.00
2024-04-18T05:25:30.385Z,97336.00
2024-04-18T05:28:36.911Z,97342.00
2024-04-18T05:31:05.976Z,97343.00
2024-04-18T05:33:34.922Z,97351.00
2024-04-18T05:36:04.437Z,97353.00
2024-04-18T05:38:32.197Z,97356.00
2024-04-18T05:40:59.806Z,97339.00
2024-04-18T05:43:46.318Z,97352.00
2024-04-18T05:46:13.934Z,97361.00
2024-04-18T05:48:41.447Z,97374.00
2024-04-18T05:51:08.994Z,97382.00
2024-04-18T05:53:53.254Z,97380.00
2024-04-18T05:56:29.326Z,97376.00
2024-04-18T05:58:56.860Z,97377.00
2024-04-18T06:01:24.466Z,97376.00
2024-04-18T06:03:52.265Z,97382.00
2024-04-18T06:06:19.879Z,97391.00
2024-04-18T06:08:47.616Z,97398.00
2024-04-18T06:11:17.289Z,97400.00
2024-04-18T06:13:44.849Z,97404.00
2024-04-18T06:16:12.455Z,97417.00
2024-04-18T06:18:52.185Z,97415.00
2024-04-18T06:21:19.823Z,97418.00
2024-04-18T06:23:47.360Z,97419.00
2024-04-18T06:26:17.974Z,97430.00
2024-04-18T06:28:46.601Z,97436.00
2024-04-18T06:31:14.462Z,97429.00
2024-04-18T06:33:42.218Z,97414.00
2024-04-18T06:36:11.894Z,97431.00
2024-04-18T06:38:40.201Z,97442.00
2024-04-18T06:41:08.004Z,97434.00
2024-04-18T06:43:41.848Z,97457.00
2024-04-18T06:46:10.511Z,97451.00
2024-04-18T06:48:38.580Z,97437.00
2024-04-18T06:51:06.382Z,97444.00
2024-04-18T06:53:33.917Z,97444.00
2024-04-18T06:56:02.082Z,97445.00
2024-04-18T06:58:29.706Z,97442.00
2024-04-18T07:00:57.584Z,97447.00
2024-04-18T07:03:25.477Z,97447.00
2024-04-18T07:05:53.195Z,97452.00
2024-04-18T07:08:26.842Z,97458.00
2024-04-18T07:10:54.877Z,97460.00
2024-04-18T07:13:29.811Z,97448.00
2024-04-18T07:16:01.665Z,97478.00
2024-04-18T07:18:48.243Z,97469.00
2024-04-18T07:21:17.167Z,97468.00
2024-04-18T07:23:44.806Z,97470.00
2024-04-18T07:26:12.458Z,97465.00
2024-04-18T07:28:40.062Z,97486.00
2024-04-18T07:31:07.638Z,97487.00
2024-04-18T07:33:35.597Z,97490.00
2024-04-18T07:36:17.023Z,97492.00
2024-04-18T07:38:45.101Z,97498.00
2024-04-18T07:41:12.621Z,97501.00
2024-04-18T07:43:40.165Z,97502.00
2024-04-18T07:46:07.818Z,97495.00
2024-04-18T07:48:35.469Z,97503.00
2024-04-18T07:51:03.095Z,97513.00
2024-04-18T07:53:30.626Z,97498.00
2024-04-18T07:55:58.699Z,97504.00
2024-04-18T07:58:27.827Z,97518.00
2024-04-18T08:00:56.944Z,97510.00
2024-04-18T08:03:27.476Z,97521.00
2024-04-18T08:05:58.292Z,97525.00
2024-04-18T08:08:29.603Z,97511.00
2024-04-18T08:11:16.374Z,97517.00
2024-04-18T08:13:50.097Z,97536.00
2024-04-18T08:16:20.423Z,97535.00
2024-04-18T08:18:48.000Z,97546.00
2024-04-18T08:21:15.557Z,97541.00
2024-04-18T08:23:51.923Z,97540.00
2024-04-18T08:26:19.678Z,97547.00
2024-04-18T08:28:47.467Z,97547.00
2024-04-18T08:31:15.043Z,97550.00
2024-04-18T08:33:47.068Z,97559.00
2024-04-18T08:36:21.781Z,97544.00
2024-04-18T08:38:49.314Z,97544.00
2024-04-18T08:41:17.863Z,97564.00
2024-04-18T08:43:49.039Z,97559.00
2024-04-18T08:46:20.106Z,97564.00
2024-04-18T08:48:48.939Z,97571.00
2024-04-18T08:51:18.143Z,97581.00
2024-04-18T08:53:45.699Z,97573.00
2024-04-18T08:56:19.125Z,97561.00
2024-04-18T08:58:46.763Z,97571.00
2024-04-18T09:01:14.446Z,97574.00
2024-04-18T09:03:42.219Z,97590.00
2024-04-18T09:06:11.211Z,97584.00
2024-04-18T09:08:39.171Z,97576.00
2024-04-18T09:11:09.247Z,97582.00
2024-04-18T09:13:36.978Z,97571.00
2024-04-18T09:16:04.807Z,97589.00
2024-04-18T09:18:35.786Z,97595.00
2024-04-18T09:21:04.122Z,97595.00
2024-04-18T09:23:34.729Z,97600.00
2024-04-18T09:26:02.324Z,97599.00
2024-04-18T09:28:29.846Z,97602.00
2024-04-18T09:31:00.421Z,97596.00
2024-04-18T09:33:29.189Z,97612.00
2024-04-18T09:36:02.875Z,97615.00
2024-04-18T09:38:35.851Z,97615.00
2024-04-18T09:41:25.092Z,97631.00
2024-04-18T09:44:16.839Z,97644.00
2024-04-18T09:46:46.520Z,97647.00
2024-04-18T09:49:14.967Z,97635.00
2024-04-18T09:51:44.655Z,97627.00
2024-04-18T09:54:13.801Z,97628.00
2024-04-18T09:56:42.192Z,97616.00
2024-04-18T09:59:12.130Z,97624.00
2024-04-18T10:01:42.098Z,97614.00
2024-04-18T10:04:11.208Z,97628.00
2024-04-18T10:06:42.875Z,97635.00
2024-04-18T10:09:13.431Z,97635.00
2024-04-18T10:11:42.436Z,97645.00
2024-04-18T10:14:10.072Z,97631.00
2024-04-18T10:16:52.022Z,97637.00
2024-04-18T10:19:30.612Z,97626.00
2024-04-18T10:24:35.085Z,97646.00
2024-04-18T10:27:09.078Z,97647.00
2024-04-18T10:29:36.684Z,97643.00
2024-04-18T10:32:09.562Z,97653.00
2024-04-18T10:34:37.112Z,97653.00
2024-04-18T10:37:08.053Z,97660.00
2024-04-18T10:39:43.705Z,97653.00
2024-04-18T10:42:12.599Z,97657.00
2024-04-18T10:44:40.435Z,97675.00
2024-04-18T10:47:09.125Z,97676.00
2024-04-18T10:49:36.774Z,97674.00
2024-04-18T10:52:09.459Z,97680.00
2024-04-18T10:54:37.862Z,97662.00
2024-04-18T10:57:06.112Z,97659.00
2024-04-18T10:59:33.944Z,97678.00
2024-04-18T11:02:11.413Z,97658.00
2024-04-18T11:04:39.076Z,97677.00
2024-04-18T11:07:06.859Z,97658.00
2024-04-18T11:09:35.095Z,97673.00
2024-04-18T11:12:04.122Z,97663.00
2024-04-18T11:14:31.751Z,97659.00
2024-04-18T11:17:02.689Z,97643.00
2024-04-18T11:19:31.570Z,97662.00
2024-04-18T11:22:03.356Z,97654.00
2024-04-18T11:24:31.201Z,97653.00
2024-04-18T11:26:58.836Z,97659.00
2024-04-18T11:29:28.370Z,97633.00
2024-04-18T11:32:10.636Z,97655.00
2024-04-18T11:34:43.730Z,97637.00
2024-04-18T11:37:15.009Z,97641.00
2024-04-18T11:39:43.881Z,97649.00
2024-04-18T11:42:11.704Z,97635.00
2024-04-18T11:44:39.768Z,97631.00
2024-04-18T11:47:07.546Z,97650.00
2024-04-18T11:49:35.207Z,97646.00
2024-04-18T11:52:02.703Z,97662.00
2024-04-18T11:54:30.737Z,97644.00
2024-04-18T11:56:58.312Z,97663.00
2024-04-18T11:59:36.074Z,97656.00
2024-04-18T12:02:03.886Z,97660.00
2024-04-18T12:04:51.556Z,97665.00
2024-04-18T12:07:19.102Z,97654.00
2024-04-18T12:09:49.726Z,97677.00
2024-04-18T12:12:17.393Z,97656.00
2024-04-18T12:14:48.944Z,97658.00
2024-04-18T12:17:32.001Z,97652.00
2024-04-18T12:20:20.065Z,97651.00
2024-04-18T12:22:47.647Z,97653.00
2024-04-18T12:25:19.572Z,97663.00
2024-04-18T12:27:47.714Z,97657.00
2024-04-18T12:30:31.437Z,97654.00
2024-04-18T12:33:17.641Z,97652.00
2024-04-18T12:35:45.394Z,97660.00
2024-04-18T12:38:12.968Z,97670.00
2024-04-18T12:40:46.977Z,97673.00
2024-04-18T12:43:18.369Z,97682.00
2024-04-18T12:46:06.428Z,97672.00
2024-04-18T12:48:56.564Z,97678.00
2024-04-18T12:51:24.937Z,97668.00
2024-04-18T12:53:54.875Z,97680.00
2024-04-18T12:56:48.355Z,97684.00
2024-04-18T12:59:22.057Z,97671.00
2024-04-18T13:01:49.637Z,97675.00
2024-04-18T13:04:20.218Z,97685.00
2024-04-18T13:06:47.880Z,97674.00
2024-04-18T13:09:31.615Z,97665.00
2024-04-18T13:12:04.237Z,97677.00
2024-04-18T13:14:50.410Z,97667.00
2024-04-18T13:17:18.534Z,97675.00
2024-04-18T13:19:49.057Z,97674.00
2024-04-18T13:22:17.176Z,97676.00
2024-04-18T13:24:46.730Z,97673.00
2024-04-18T13:27:32.274Z,97654.00
2024-04-18T13:30:00.101Z,97668.00
2024-04-18T13:32:40.207Z,97667.00
2024-04-18T13:35:09.549Z,97670.00
2024-04-18T13:37:37.701Z,97670.00
2024-04-18T13:40:21.100Z,97683.00
2024-04-18T13:43:02.359Z,97687.00
2024-04-18T13:45:34.688Z,97667.00
2024-04-18T13:48:06.759Z,97680.00
2024-04-18T13:50:52.226Z,97665.00
2024-04-18T13:53:19.778Z,97678.00
2024-04-18T13:55:50.184Z,97693.00
2024-04-18T13:58:20.498Z,97687.00
2024-04-18T14:00:59.130Z,97674.00
2024-04-18T14:03:32.034Z,97692.00
2024-04-18T14:06:08.551Z,97670.00
2024-04-18T14:08:42.338Z,97680.00
2024-04-18T14:11:29.828Z,97663.00
2024-04-18T14:14:07.899Z,97676.00
2024-04-18T14:16:56.635Z,97662.00
2024-04-18T14:19:34.607Z,97661.00
2024-04-18T14:22:09.082Z,97651.00
2024-04-18T14:24:37.020Z,97656.00
2024-04-18T14:27:05.287Z,97651.00
2024-04-18T14:29:32.896Z,97651.00
2024-04-18T14:32:02.551Z,97655.00
2024-04-18T14:34:49.001Z,97646.00
2024-04-18T14:37:19.606Z,97646.00
2024-04-18T14:39:48.012Z,97656.00
2024-04-18T14:42:15.662Z,97651.00
2024-04-18T14:44:43.240Z,97653.00
2024-04-18T14:47:14.787Z,97643.00
2024-04-18T14:50:01.638Z,97659.00
2024-04-18T14:52:35.513Z,97650.00
2024-04-18T14:55:23.012Z,97650.00
2024-04-18T14:57:50.592Z,97644.00
2024-04-18T15:00:18.873Z,97656.00
2024-04-18T15:02:46.910Z,97642.00
2024-04-18T15:05:33.791Z,97653.00
2024-04-18T15:08:01.798Z,97649.00
2024-04-18T15:10:48.396Z,97646.00
2024-04-18T15:13:16.513Z,97646.00
2024-04-18T15:15:45.438Z,97640.00
2024-04-18T15:18:15.051Z,97639.00
2024-04-18T15:20:42.988Z,97643.00
2024-04-18T15:23:11.882Z,97655.00
2024-04-18T15:25:39.435Z,97633.00
2024-04-18T15:28:07.327Z,97637.00
2024-04-18T15:30:35.113Z,97650.00
2024-04-18T15:33:21.830Z,97631.00
2024-04-18T15:35:49.458Z,97632.00
2024-04-18T15:38:16.997Z,97636.00
2024-04-18T15:41:03.159Z,97642.00
2024-04-18T15:43:36.964Z,97653.00
2024-04-18T15:46:05.474Z,97663.00
2024-04-18T15:48:33.276Z,97663.00
2024-04-18T15:51:00.954Z,97655.00
2024-04-18T15:53:31.952Z,97672.00
2024-04-18T15:56:09.270Z,97666.00
2024-04-18T15:58:55.947Z,97674.00
2024-04-18T16:01:24.748Z,97687.00
2024-04-18T16:04:11.417Z,97668.00
2024-04-18T16:06:57.985Z,97670.00
2024-04-18T16:09:44.184Z,97658.00
2024-04-18T16:12:21.340Z,97674.00
2024-04-18T16:15:04.124Z,97671.00
2024-04-18T16:17:33.485Z,97670.00
2024-04-18T16:20:13.794Z,97673.00
2024-04-18T16:22:42.075Z,97661.00
2024-04-18T16:25:26.661Z,97672.00
2024-04-18T16:27:54.277Z,97669.00
2024-04-18T16:30:21.879Z,97662.00
2024-04-18T16:32:49.694Z,97654.00
2024-04-18T16:35:17.607Z,97671.00
2024-04-18T16:37:45.826Z,97654.00
2024-04-18T16:40:17.386Z,97671.00
2024-04-18T16:43:03.535Z,97672.00
2024-04-18T16:45:49.804Z,97682.00
2024-04-18T16:48:17.444Z,97664.00
2024-04-18T16:50:45.464Z,97670.00
2024-04-18T16:53:13.003Z,97675.00
2024-04-18T16:55:43.578Z,97678.00
2024-04-18T16:58:18.505Z,97674.00
2024-04-18T17:00:56.077Z,97682.00
2024-04-18T17:03:23.789Z,97674.00
2024-04-18T17:06:05.635Z,97675.00
2024-04-18T17:08:34.008Z,97669.00
2024-04-18T17:11:02.012Z,97674.00
2024-04-18T17:13:52.377Z,97671.00
2024-04-18T17:16:21.069Z,97673.00
2024-04-18T17:18:51.372Z,97676.00
2024-04-18T17:21:19.003Z,97661.00
2024-04-18T17:23:46.707Z,97662.00
2024-04-18T17:26:14.305Z,97670.00
2024-04-18T17:28:42.062Z,97648.00
2024-04-18T17:31:09.675Z,97671.00
2024-04-18T17:33:37.439Z,97668.00
2024-04-18T17:36:05.688Z,97680.00
2024-04-18T17:38:50.083Z,97660.00
2024-04-18T17:41:31.444Z,97660.00
2024-04-18T17:44:18.197Z,97654.00
2024-04-18T17:46:59.554Z,97663.00
2024-04-18T17:49:28.611Z,97670.00
2024-04-18T17:51:56.250Z,97674.00
2024-04-18T17:54:23.841Z,97678.00
2024-04-18T17:56:51.581Z,97682.00
2024-04-18T17:59:20.352Z,97664.00
2024-04-18T18:01:48.147Z,97683.00
2024-04-18T18:04:16.148Z,97665.00
2024-04-18T18:06:45.189Z,97679.00
2024-04-18T18:09:12.804Z,97676.00
2024-04-18T18:11:40.923Z,97680.00
2024-04-18T18:14:08.674Z,97676.00
2024-04-18T18:16:54.969Z,97653.00
2024-04-18T18:19:22.665Z,97674.00
2024-04-18T18:22:01.583Z,97672.00
2024-04-18T18:24:29.211Z,97672.00
2024-04-18T18:26:57.252Z,97661.00
2024-04-18T18:29:24.815Z,97669.00
2024-04-18T18:32:13.917Z,97677.00
2024-04-18T18:34:46.657Z,97679.00
2024-04-18T18:37:15.725Z,97662.00
2024-04-18T18:39:43.845Z,97675.00
2024-04-18T18:42:12.240Z,97664.00
2024-04-18T18:44:40.196Z,97663.00
2024-04-18T18:47:07.823Z,97677.00
2024-04-18T18:49:50.552Z,97673.00
2024-04-18T18:52:27.125Z,97657.00
2024-04-18T18:54:55.617Z,97664.00
2024-04-18T18:57:23.720Z,97679.00
2024-04-18T18:59:51.768Z,97672.00
2024-04-18T19:02:19.479Z,97675.00
2024-04-18T19:05:02.074Z,97675.00
2024-04-18T19:07:29.628Z,97664.00
2024-04-18T19:09:57.164Z,97654.00
2024-04-18T19:12:25.353Z,97658.00
2024-04-18T19:14:55.971Z,97647.00
2024-04-18T19:17:23.507Z,97666.00
2024-04-18T19:19:51.102Z,97652.00
2024-04-18T19:22:18.648Z,97658.00
2024-04-18T19:24:46.615Z,97658.00
2024-04-18T19:27:14.278Z,97643.00
2024-04-18T19:29:46.874Z,97650.00
2024-04-18T19:32:20.602Z,97647.00
2024-04-18T19:34:48.188Z,97661.00
2024-04-18T19:37:15.774Z,97650.00
2024-04-18T19:39:43.407Z,97655.00
2024-04-18T19:42:11.054Z,97651.00
2024-04-18T19:44:38.625Z,97647.00
2024-04-18T19:47:06.973Z,97659.00
2024-04-18T19:49:40.442Z,97644.00
2024-04-18T19:52:09.061Z,97642.00
2024-04-18T19:54:39.403Z,97669.00
2024-04-18T19:57:07.121Z,97634.00
2024-04-18T19:59:36.218Z,97641.00
2024-04-18T20:02:03.905Z,97650.00
2024-04-18T20:04:31.463Z,97637.00
2024-04-18T20:06:59.093Z,97649.00
2024-04-18T20:09:26.644Z,97616.00
2024-04-18T20:11:54.323Z,97633.00
2024-04-18T20:14:21.886Z,97642.00
2024-04-18T20:16:49.504Z,97634.00
2024-04-18T20:19:17.605Z,97626.00
2024-04-18T20:21:45.534Z,97617.00
2024-04-18T20:24:15.595Z,97640.00
2024-04-18T20:27:02.829Z,97630.00
2024-04-18T20:29:45.984Z,97635.00
2024-04-18T20:32:26.353Z,97616.00
2024-04-18T20:34:55.484Z,97644.00
2024-04-18T20:37:25.532Z,97621.00
2024-04-18T20:39:57.557Z,97625.00
2024-04-18T20:42:27.258Z,97635.00
2024-04-18T20:45:02.602Z,97620.00
2024-04-18T20:47:30.381Z,97619.00
2024-04-18T20:49:58.437Z,97637.00
2024-04-18T20:52:26.152Z,97594.00
2024-04-18T20:54:53.877Z,97615.00
2024-04-18T20:57:23.711Z,97602.00
2024-04-18T20:59:53.463Z,97613.00
2024-04-18T21:02:21.849Z,97606.00
2024-04-18T21:04:53.084Z,97609.00
2024-04-18T21:07:20.785Z,97600.00
2024-04-18T21:09:48.614Z,97612.00
2024-04-18T21:12:17.341Z,97596.00
2024-04-18T21:14:45.067Z,97602.00
2024-04-18T21:17:12.752Z,97593.00
2024-04-18T21:19:40.505Z,97589.00
2024-04-18T21:22:08.312Z,97602.00
2024-04-18T21:24:36.015Z,97592.00
2024-04-18T21:27:03.716Z,97583.00
2024-04-18T21:29:31.376Z,97583.00
2024-04-18T21:31:59.056Z,97574.00
2024-04-18T21:34:26.867Z,97568.00
2024-04-18T21:36:54.629Z,97558.00
2024-04-18T21:39:22.419Z,97579.00
2024-04-18T21:41:50.111Z,97581.00
2024-04-18T21:44:17.808Z,97566.00
2024-04-18T21:46:45.602Z,97565.00
2024-04-18T21:49:13.365Z,97569.00
2024-04-18T21:51:41.192Z,97561.00
2024-04-18T21:54:08.969Z,97553.00
2024-04-18T21:56:36.647Z,97549.00
2024-04-18T21:59:04.368Z,97560.00
2024-04-18T22:01:43.017Z,97574.00
2024-04-18T22:04:12.250Z,97566.00
2024-04-18T22:06:40.408Z,97570.00
2024-04-18T22:09:08.606Z,97567.00
2024-04-18T22:11:36.565Z,97565.00
2024-04-18T22:14:04.313Z,97560.00
2024-04-18T22:16:31.988Z,97551.00
2024-04-18T22:18:59.759Z,97533.00
2024-04-18T22:21:38.350Z,97562.00
2024-04-18T22:24:07.698Z,97533.00
2024-04-18T22:26:36.227Z,97541.00
2024-04-18T22:29:04.285Z,97531.00
2024-04-18T22:31:31.964Z,97541.00
2024-04-18T22:33:59.779Z,97504.00
2024-04-18T22:36:28.355Z,97521.00
2024-04-18T22:38:57.854Z,97512.00
2024-04-18T22:41:28.807Z,97515.00
2024-04-18T22:43:56.543Z,97505.00
2024-04-18T22:46:24.244Z,97495.00
2024-04-18T22:48:52.255Z,97502.00
2024-04-18T22:51:20.140Z,97528.00
2024-04-18T22:53:47.867Z,97478.00
2024-04-18T22:56:15.556Z,97502.00
2024-04-18T22:58:43.296Z,97504.00
2024-04-18T23:01:11.336Z,97491.00
2024-04-18T23:03:39.260Z,97491.00
2024-04-18T23:06:14.307Z,97512.00
2024-04-18T23:08:43.661Z,97496.00
2024-04-18T23:11:11.857Z,97493.00
2024-04-18T23:13:39.959Z,97483.00
2024-04-18T23:16:08.226Z,97489.00
2024-04-18T23:18:36.780Z,97502.00
2024-04-18T23:21:04.803Z,97484.00
2024-04-18T23:23:35.875Z,97488.00
2024-04-18T23:26:04.363Z,97468.00
2024-04-18T23:28:32.087Z,97474.00
2024-04-18T23:30:59.812Z,97461.00
2024-04-18T23:33:27.633Z,97471.00
2024-04-18T23:35:55.379Z,97478.00
2024-04-18T23:38:23.048Z,97484.00
2024-04-18T23:40:51.085Z,97478.00
2024-04-18T23:43:19.151Z,97466.00
2024-04-18T23:45:46.907Z,97471.00
2024-04-18T23:48:14.840Z,97475.00
2024-04-18T23:50:42.900Z,97458.00
2024-04-18T23:53:10.834Z,97448.00
2024-04-18T23:55:40.210Z,97446.00
2024-04-18T23:58:07.858Z,97446.00
